Coqueiro Baixo, Brazil
Current Conditions -  °F | °C
As of 7:00 AM on Tuesday 21 Oct 2014 (Local Time) from SBPF Reporting Station
Clear Clear  
Wind Chill: 54°   Ceiling: Unl
Heat Index: 54°   Visibility: 6mi
Dew Point: 46°   Wind: 16mph
Humidity: 77%   Direction: 90°E
Pressure: 30.15"   Gusts: NA
Location:  29.18°S, 52.09°W
Report Text: SBPF 210900Z 09014KT CAVOK 12/08 Q1021
Loading
Personal Weather Stations






























Interactive Weather Map
Tropical Storm Tracking
New forecast layout! Learn more

10-Day Weather Forecast

Advertisements
Track Severe Weather on mobile